Time;durP1;ratioP1;P1;durP2;ratioP2;P2;SDS_P1;SDS_P2;PMS_P1;PMS_P2;Temp;Humidity;BMP_temperature;BMP_pressure;BME280_temperature;BME280_humidity;BME280_pressure;Samples;Min_cycle;Max_cycle;Signal;HPM_P1;HPM_P2
2023/08/24 00:01:12;;;;;;;9.80;7.43;;;29.20;71.80;;;;;;5054253;28;20104;-77
2023/08/24 00:03:38;;;;;;;10.65;7.60;;;29.20;71.90;;;;;;5054322;28;20031;-77
2023/08/24 00:06:04;;;;;;;9.70;7.30;;;29.10;71.80;;;;;;5053987;28;20027;-77
2023/08/24 00:08:30;;;;;;;13.90;7.15;;;29.10;71.70;;;;;;5053023;28;20021;-77
2023/08/24 00:10:56;;;;;;;11.32;7.60;;;29.10;71.60;;;;;;5054266;28;20017;-77
2023/08/24 00:13:22;;;;;;;8.80;6.97;;;29.10;71.60;;;;;;5053945;28;20101;-77
2023/08/24 00:15:47;;;;;;;9.25;7.35;;;29.10;71.50;;;;;;5054003;28;20048;-78
2023/08/24 00:18:13;;;;;;;10.15;7.20;;;29.10;71.40;;;;;;5053705;28;20489;-77
2023/08/24 00:20:39;;;;;;;8.82;7.18;;;29.10;71.50;;;;;;5053762;28;20021;-78
2023/08/24 00:23:04;;;;;;;8.07;7.10;;;29.10;71.50;;;;;;5052695;28;20033;-78
2023/08/24 00:25:31;;;;;;;11.23;7.03;;;29.00;71.60;;;;;;5053714;28;20025;-78
2023/08/24 00:27:56;;;;;;;11.27;7.53;;;29.00;71.80;;;;;;5053692;28;20112;-78
2023/08/24 00:30:23;;;;;;;8.82;7.45;;;29.00;71.90;;;;;;5053587;28;20055;-78
2023/08/24 00:32:50;;;;;;;9.18;7.22;;;29.00;72.00;;;;;;5053694;28;20388;-78
2023/08/24 00:35:16;;;;;;;10.52;7.78;;;29.00;72.10;;;;;;5053382;28;20354;-78
2023/08/24 00:37:41;;;;;;;9.38;7.38;;;29.00;71.90;;;;;;5053494;28;20036;-77
2023/08/24 00:40:11;;;;;;;11.25;7.20;;;28.90;71.70;;;;;;5053508;28;20024;-78
2023/08/24 00:42:40;;;;;;;10.93;7.05;;;29.00;71.80;;;;;;5053530;28;20085;-78
2023/08/24 00:45:11;;;;;;;8.13;7.30;;;29.00;72.00;;;;;;5053577;28;20021;-78
2023/08/24 00:47:39;;;;;;;11.02;7.10;;;28.90;71.80;;;;;;5053135;28;20112;-77
2023/08/24 00:50:09;;;;;;;15.18;7.40;;;28.90;71.80;;;;;;5053071;28;20108;-77
2023/08/24 00:52:39;;;;;;;8.27;7.30;;;28.90;71.80;;;;;;5052259;28;20056;-77
2023/08/24 00:55:05;;;;;;;10.63;7.35;;;28.90;71.70;;;;;;5053619;28;20028;-78
2023/08/24 00:57:32;;;;;;;13.45;7.60;;;28.90;71.80;;;;;;5052610;28;20037;-77
2023/08/24 01:00:01;;;;;;;8.93;7.65;;;28.90;72.00;;;;;;5054617;28;20040;-77
2023/08/24 01:02:27;;;;;;;9.23;7.50;;;28.90;72.20;;;;;;5060224;28;20543;-78
2023/08/24 01:04:53;;;;;;;14.88;7.05;;;28.90;72.20;;;;;;5059116;28;20025;-78
2023/08/24 01:07:20;;;;;;;13.07;7.35;;;28.80;71.90;;;;;;5052715;28;20561;-77
2023/08/24 01:09:47;;;;;;;11.63;7.05;;;28.80;72.00;;;;;;5052922;28;20063;-77
2023/08/24 01:12:50;;;;;;;9.35;7.00;;;28.80;72.10;;;;;;5068296;28;20539;-77
2023/08/24 01:15:33;;;;;;;9.38;7.05;;;28.80;72.00;;;;;;5052786;28;20114;-78
2023/08/24 01:18:05;;;;;;;10.65;7.57;;;28.80;72.00;;;;;;5052949;28;20037;-78
2023/08/24 01:20:34;;;;;;;12.52;7.78;;;28.80;72.00;;;;;;5051228;28;20325;-78
2023/08/24 01:23:18;;;;;;;11.18;7.00;;;28.70;72.10;;;;;;5051213;28;20472;-78
2023/08/24 01:26:08;;;;;;;15.85;7.95;;;28.70;72.20;;;;;;5051556;28;20033;-77
2023/08/24 01:28:34;;;;;;;9.43;7.22;;;28.70;72.40;;;;;;5052673;28;20023;-78
2023/08/24 01:31:00;;;;;;;8.57;7.22;;;28.70;72.50;;;;;;5051061;28;20032;-78
2023/08/24 01:33:26;;;;;;;11.98;7.60;;;28.70;72.50;;;;;;5052826;28;20381;-78
2023/08/24 01:35:52;;;;;;;8.05;7.22;;;28.70;72.40;;;;;;5052431;28;20086;-78
2023/08/24 01:38:17;;;;;;;8.70;7.13;;;28.60;72.40;;;;;;5052610;28;20602;-78
2023/08/24 01:41:02;;;;;;;11.98;7.05;;;28.60;72.20;;;;;;5052763;28;20065;-78
2023/08/24 01:43:33;;;;;;;11.85;7.20;;;28.60;72.20;;;;;;5052593;28;20116;-78
2023/08/24 01:46:02;;;;;;;10.73;6.88;;;28.60;72.10;;;;;;5052525;28;20056;-78
2023/08/24 01:48:30;;;;;;;10.18;7.03;;;28.60;72.10;;;;;;5052205;28;20021;-78
2023/08/24 01:50:58;;;;;;;8.32;7.43;;;28.60;72.10;;;;;;5052473;28;20025;-78
2023/08/24 01:53:25;;;;;;;16.05;7.03;;;28.60;72.30;;;;;;5052558;28;20025;-78
2023/08/24 01:55:52;;;;;;;9.15;6.57;;;28.60;72.60;;;;;;5052674;28;20021;-78
2023/08/24 01:58:18;;;;;;;8.45;6.97;;;28.60;72.40;;;;;;5052530;28;20135;-78
2023/08/24 02:00:44;;;;;;;9.35;7.40;;;28.60;72.20;;;;;;5052341;28;20155;-78
2023/08/24 02:03:10;;;;;;;10.75;7.70;;;28.50;72.10;;;;;;5052519;28;20029;-79
2023/08/24 02:05:35;;;;;;;11.35;7.07;;;28.60;72.30;;;;;;5052590;28;20025;-78
2023/08/24 02:08:01;;;;;;;9.77;7.93;;;28.60;72.30;;;;;;5051557;28;20032;-78
2023/08/24 02:10:27;;;;;;;9.07;6.70;;;28.50;72.20;;;;;;5052596;28;20033;-78
2023/08/24 02:12:53;;;;;;;9.23;7.13;;;28.50;72.30;;;;;;5052090;28;20029;-78
2023/08/24 02:15:18;;;;;;;8.27;6.30;;;28.50;73.10;;;;;;5051932;28;20028;-78
2023/08/24 02:17:44;;;;;;;9.93;6.97;;;28.40;72.30;;;;;;5050723;28;20044;-77
2023/08/24 02:20:13;;;;;;;13.35;7.03;;;28.40;72.10;;;;;;5052184;28;20021;-77
2023/08/24 02:22:39;;;;;;;13.43;7.57;;;28.50;72.20;;;;;;5052476;28;20104;-76
2023/08/24 02:25:06;;;;;;;10.55;7.03;;;28.40;72.30;;;;;;5052477;28;20059;-77
2023/08/24 02:27:32;;;;;;;11.65;7.07;;;28.40;72.40;;;;;;5052340;28;20049;-78
2023/08/24 02:29:58;;;;;;;8.65;7.15;;;28.40;72.40;;;;;;5052123;28;20089;-78
2023/08/24 02:32:24;;;;;;;8.75;7.32;;;28.40;72.40;;;;;;5052700;28;20033;-78
2023/08/24 02:34:49;;;;;;;12.43;6.78;;;28.40;72.40;;;;;;5041123;28;20054;-78
2023/08/24 02:37:15;;;;;;;19.35;7.78;;;28.40;72.50;;;;;;5032206;28;20060;-78
2023/08/24 02:39:41;;;;;;;10.65;7.68;;;28.40;72.40;;;;;;5032276;28;20102;-78
2023/08/24 02:42:07;;;;;;;10.50;7.00;;;28.30;72.40;;;;;;5032850;28;20025;-76
2023/08/24 02:44:32;;;;;;;9.82;7.13;;;28.30;72.70;;;;;;5035632;28;20026;-78
2023/08/24 02:46:58;;;;;;;10.93;7.97;;;28.30;72.70;;;;;;5035655;28;20021;-78
2023/08/24 02:49:24;;;;;;;9.63;7.45;;;28.30;72.70;;;;;;5035779;28;20022;-78
2023/08/24 02:51:50;;;;;;;11.35;7.50;;;28.30;72.70;;;;;;5035553;28;20088;-78
2023/08/24 02:54:15;;;;;;;13.23;7.30;;;28.30;72.70;;;;;;5035453;28;20030;-78
2023/08/24 02:56:41;;;;;;;11.75;7.30;;;28.30;72.80;;;;;;5035699;28;20029;-79
2023/08/24 02:59:07;;;;;;;17.10;7.20;;;28.20;72.80;;;;;;5035173;28;20052;-78
2023/08/24 03:01:33;;;;;;;7.80;6.85;;;28.20;72.90;;;;;;5035600;28;20026;-78
2023/08/24 03:03:58;;;;;;;11.68;7.13;;;28.20;72.90;;;;;;5035455;28;20112;-78
2023/08/24 03:06:24;;;;;;;9.55;7.35;;;28.20;72.80;;;;;;5035227;28;20053;-78
2023/08/24 03:08:50;;;;;;;11.23;7.05;;;28.20;72.80;;;;;;5035564;28;20030;-79
2023/08/24 03:11:16;;;;;;;7.85;7.00;;;28.20;73.00;;;;;;5035376;28;20025;-79
2023/08/24 03:13:41;;;;;;;11.40;7.15;;;28.20;73.10;;;;;;5050359;28;20076;-78
2023/08/24 03:16:09;;;;;;;12.00;7.55;;;28.20;73.10;;;;;;5035312;28;20068;-78
2023/08/24 03:18:35;;;;;;;8.55;7.03;;;28.10;73.10;;;;;;5033709;28;20029;-79
2023/08/24 03:21:01;;;;;;;12.80;8.05;;;28.10;73.10;;;;;;5039891;28;20075;-78
2023/08/24 03:23:27;;;;;;;10.27;7.28;;;28.10;73.10;;;;;;5034950;28;20109;-77
2023/08/24 03:25:53;;;;;;;11.07;7.65;;;28.10;73.20;;;;;;5034856;28;20057;-78
2023/08/24 03:28:19;;;;;;;13.75;7.30;;;28.10;73.20;;;;;;5034516;28;20512;-78
2023/08/24 03:30:50;;;;;;;9.30;7.53;;;28.10;73.10;;;;;;5034936;28;20087;-78
2023/08/24 03:33:16;;;;;;;14.43;7.82;;;28.10;73.10;;;;;;5033637;28;20025;-78
2023/08/24 03:35:42;;;;;;;11.98;7.63;;;28.00;72.90;;;;;;5034595;28;20397;-78
2023/08/24 03:38:08;;;;;;;14.48;7.35;;;28.00;73.00;;;;;;5034719;28;20040;-78
2023/08/24 03:40:34;;;;;;;11.38;7.72;;;28.10;73.30;;;;;;5034645;28;20461;-78
2023/08/24 03:43:02;;;;;;;8.57;7.07;;;28.10;73.30;;;;;;5034547;28;20031;-77
2023/08/24 03:45:28;;;;;;;9.48;7.18;;;28.00;73.70;;;;;;5034368;28;20497;-77
2023/08/24 03:47:54;;;;;;;11.18;7.90;;;28.00;73.10;;;;;;5049960;28;20165;-77
2023/08/24 03:50:22;;;;;;;9.48;7.55;;;28.00;73.20;;;;;;5034529;28;20049;-78
2023/08/24 03:52:49;;;;;;;11.75;7.88;;;28.00;73.20;;;;;;5033750;28;20032;-76
2023/08/24 03:55:15;;;;;;;13.30;7.50;;;28.00;73.30;;;;;;5034019;28;20071;-79
2023/08/24 03:57:41;;;;;;;12.73;7.55;;;28.00;73.40;;;;;;5034389;28;20074;-78
2023/08/24 04:00:11;;;;;;;14.82;7.50;;;28.00;73.20;;;;;;5034294;28;20026;-78
2023/08/24 04:02:38;;;;;;;15.38;8.27;;;28.00;73.20;;;;;;5034387;28;20469;-78
2023/08/24 04:05:04;;;;;;;14.68;7.95;;;27.90;73.40;;;;;;5034396;28;20053;-78
2023/08/24 04:07:31;;;;;;;10.57;7.35;;;27.90;73.40;;;;;;5034069;28;20056;-78
2023/08/24 04:10:00;;;;;;;9.18;7.25;;;27.90;73.60;;;;;;5033980;28;20443;-78
2023/08/24 04:12:25;;;;;;;9.70;7.30;;;27.90;73.70;;;;;;5034217;28;20083;-78
2023/08/24 04:14:52;;;;;;;9.70;7.70;;;27.80;73.70;;;;;;5032855;28;20029;-79
2023/08/24 04:17:18;;;;;;;9.95;8.05;;;27.90;73.90;;;;;;5049052;28;20441;-78
2023/08/24 04:19:43;;;;;;;9.77;8.10;;;27.90;74.00;;;;;;5033903;28;20034;-78
2023/08/24 04:22:09;;;;;;;11.93;8.20;;;27.80;74.00;;;;;;5049169;28;20083;-78
2023/08/24 04:24:35;;;;;;;9.02;7.82;;;27.80;74.00;;;;;;5033501;28;20492;-78
2023/08/24 04:27:01;;;;;;;7.72;6.93;;;27.80;74.00;;;;;;5033692;28;20030;-77
2023/08/24 04:29:27;;;;;;;12.02;7.55;;;27.70;73.80;;;;;;5033597;28;20025;-77
2023/08/24 04:31:53;;;;;;;8.35;7.43;;;27.70;73.70;;;;;;5032128;28;20022;-77
2023/08/24 04:34:18;;;;;;;11.15;7.47;;;27.80;73.90;;;;;;5040096;28;20039;-77
2023/08/24 04:36:44;;;;;;;10.10;7.43;;;27.80;73.90;;;;;;5053101;28;20049;-78
2023/08/24 04:39:10;;;;;;;11.50;7.90;;;27.80;73.90;;;;;;5053500;28;20028;-78
2023/08/24 04:41:36;;;;;;;10.40;7.88;;;27.70;73.90;;;;;;5034415;28;20109;-79
2023/08/24 04:44:02;;;;;;;14.00;8.15;;;27.80;74.10;;;;;;5033532;28;20029;-79
2023/08/24 04:46:27;;;;;;;12.02;7.57;;;27.80;74.10;;;;;;5033605;28;20397;-79
2023/08/24 04:48:53;;;;;;;10.95;7.97;;;27.80;74.10;;;;;;5032004;28;20025;-79
2023/08/24 04:51:19;;;;;;;12.43;8.10;;;27.80;74.10;;;;;;5033217;28;20044;-79
2023/08/24 04:53:45;;;;;;;14.07;8.57;;;27.70;74.10;;;;;;5033143;28;20026;-79
2023/08/24 04:56:11;;;;;;;11.27;8.27;;;27.80;74.30;;;;;;5033467;28;20043;-79
2023/08/24 04:58:36;;;;;;;13.82;8.60;;;27.70;74.30;;;;;;5033272;28;20041;-79
2023/08/24 05:01:02;;;;;;;14.95;8.20;;;27.70;74.70;;;;;;5033275;28;20017;-76
2023/08/24 05:03:31;;;;;;;13.43;7.82;;;27.70;74.80;;;;;;5037397;28;20056;-76
2023/08/24 05:05:56;;;;;;;12.25;8.05;;;27.70;74.90;;;;;;5050772;28;20473;-76
2023/08/24 05:08:22;;;;;;;11.52;8.20;;;27.70;74.80;;;;;;5052636;28;20028;-76
2023/08/24 05:10:48;;;;;;;10.85;8.75;;;27.70;74.80;;;;;;5052564;28;20360;-76
2023/08/24 05:13:14;;;;;;;11.75;8.00;;;27.70;74.80;;;;;;5052610;28;20025;-77
2023/08/24 05:15:40;;;;;;;14.23;8.63;;;27.70;74.80;;;;;;5052548;28;20044;-76
2023/08/24 05:18:06;;;;;;;13.02;8.18;;;27.70;74.70;;;;;;5052628;28;20118;-77
2023/08/24 05:20:32;;;;;;;13.05;8.20;;;27.70;74.80;;;;;;5052483;28;20032;-77
2023/08/24 05:22:59;;;;;;;12.98;7.65;;;27.80;75.00;;;;;;5052252;28;20416;-77
2023/08/24 05:25:25;;;;;;;14.55;7.95;;;27.70;74.90;;;;;;5052534;28;20492;-77
2023/08/24 05:27:51;;;;;;;13.23;7.75;;;27.80;75.60;;;;;;5067711;28;20018;-77
2023/08/24 05:30:17;;;;;;;17.17;7.85;;;27.70;74.90;;;;;;5052566;28;20116;-76
2023/08/24 05:32:43;;;;;;;10.18;7.78;;;27.80;74.80;;;;;;5052843;28;20025;-76
2023/08/24 05:35:09;;;;;;;14.25;8.48;;;27.80;74.80;;;;;;5052639;28;20079;-76
2023/08/24 05:37:35;;;;;;;18.17;8.85;;;27.80;75.00;;;;;;5050684;28;20127;-76
2023/08/24 05:40:02;;;;;;;9.82;7.82;;;27.90;75.10;;;;;;5052307;28;20052;-76
2023/08/24 05:42:28;;;;;;;12.52;8.10;;;27.80;75.00;;;;;;5051139;28;20028;-76
2023/08/24 05:44:54;;;;;;;12.75;7.97;;;27.80;75.00;;;;;;5052445;28;20078;-76
2023/08/24 05:47:20;;;;;;;14.65;8.38;;;27.90;75.10;;;;;;5052057;28;20043;-76
2023/08/24 05:49:46;;;;;;;12.65;8.25;;;27.90;74.90;;;;;;5050766;28;20552;-76
2023/08/24 05:52:12;;;;;;;12.43;8.15;;;27.90;74.80;;;;;;5043038;28;20064;-77
2023/08/24 05:54:38;;;;;;;15.50;7.75;;;28.00;74.80;;;;;;5031016;28;20401;-76
2023/08/24 05:57:05;;;;;;;11.63;8.48;;;27.90;75.30;;;;;;5031961;28;20041;-76
2023/08/24 05:59:34;;;;;;;12.40;8.18;;;28.00;74.50;;;;;;5034873;28;20025;-76
2023/08/24 06:02:00;;;;;;;12.23;8.10;;;28.00;74.50;;;;;;5032448;28;20469;-75
2023/08/24 06:04:26;;;;;;;16.17;7.82;;;28.00;74.50;;;;;;5032320;28;20032;-76
2023/08/24 06:06:52;;;;;;;13.60;7.80;;;28.10;74.70;;;;;;5031999;28;20022;-76
2023/08/24 06:09:18;;;;;;;12.18;7.78;;;28.10;74.80;;;;;;5032567;28;20025;-77
2023/08/24 06:11:44;;;;;;;11.45;8.25;;;28.10;74.90;;;;;;5031258;28;20029;-77
2023/08/24 06:14:13;;;;;;;15.68;8.20;;;28.10;74.80;;;;;;5032683;28;20030;-77
2023/08/24 06:16:38;;;;;;;11.30;7.63;;;28.10;74.60;;;;;;5033492;28;20052;-77
2023/08/24 06:19:04;;;;;;;15.48;8.20;;;28.20;74.70;;;;;;5035476;28;20398;-76
2023/08/24 06:21:34;;;;;;;14.38;8.73;;;28.10;74.60;;;;;;5036064;28;20044;-76
2023/08/24 06:24:01;;;;;;;11.93;7.65;;;28.20;74.70;;;;;;5035758;28;20030;-76
2023/08/24 06:26:26;;;;;;;12.13;8.48;;;28.20;74.80;;;;;;5035700;28;20021;-77
2023/08/24 06:28:52;;;;;;;14.00;8.10;;;28.20;74.90;;;;;;5035782;28;20035;-77
2023/08/24 06:31:18;;;;;;;12.02;8.57;;;28.20;75.00;;;;;;5035563;28;20036;-77
2023/08/24 06:33:44;;;;;;;11.55;8.27;;;28.30;74.90;;;;;;5035074;28;20417;-79
2023/08/24 06:36:10;;;;;;;15.70;7.95;;;28.30;74.70;;;;;;5034802;28;20469;-77
2023/08/24 06:38:35;;;;;;;11.65;8.75;;;28.30;74.70;;;;;;5032921;28;20048;-78
2023/08/24 06:41:01;;;;;;;11.13;8.60;;;28.40;74.80;;;;;;5035202;28;20382;-79
2023/08/24 06:43:27;;;;;;;12.05;8.20;;;28.40;74.80;;;;;;5035004;28;20026;-79
2023/08/24 06:45:55;;;;;;;8.77;7.32;;;28.40;74.80;;;;;;5034571;28;20037;-79
2023/08/24 06:48:20;;;;;;;10.68;8.00;;;28.40;74.80;;;;;;5034461;28;20029;-78
2023/08/24 06:50:49;;;;;;;12.07;7.60;;;28.50;75.10;;;;;;5033818;28;20232;-79
2023/08/24 06:53:15;;;;;;;11.68;7.85;;;28.50;75.20;;;;;;5032331;28;20037;-78
2023/08/24 06:55:41;;;;;;;9.07;7.45;;;28.60;74.90;;;;;;5032139;28;20026;-80
2023/08/24 06:58:09;;;;;;;9.05;7.35;;;28.60;74.30;;;;;;5032623;28;20044;-80
2023/08/24 07:00:35;;;;;;;12.23;7.80;;;28.60;73.90;;;;;;5034771;28;20034;-79
2023/08/24 07:03:01;;;;;;;9.55;7.70;;;28.70;73.80;;;;;;5035059;28;20406;-79
2023/08/24 07:05:27;;;;;;;12.93;8.07;;;28.70;73.70;;;;;;5034994;28;20026;-79
2023/08/24 07:07:56;;;;;;;12.73;7.80;;;28.70;73.70;;;;;;5035490;28;20572;-76
2023/08/24 07:10:22;;;;;;;12.68;8.05;;;28.80;74.10;;;;;;5035449;28;20022;-79
2023/08/24 07:12:47;;;;;;;13.00;8.02;;;28.80;74.20;;;;;;5035549;28;20033;-78
2023/08/24 07:15:14;;;;;;;15.63;7.68;;;28.90;74.10;;;;;;5035098;28;20064;-79
2023/08/24 07:17:40;;;;;;;14.70;8.23;;;28.90;74.00;;;;;;5035131;28;20112;-79
2023/08/24 07:20:11;;;;;;;9.52;7.93;;;29.00;74.20;;;;;;5035036;28;20030;-79
2023/08/24 07:22:37;;;;;;;12.27;8.30;;;29.00;74.90;;;;;;5035029;28;20563;-78
2023/08/24 07:25:05;;;;;;;13.18;8.23;;;29.10;74.10;;;;;;5035017;28;20021;-78
2023/08/24 07:27:32;;;;;;;19.23;9.15;;;29.10;74.30;;;;;;5034556;28;20024;-79
2023/08/24 07:29:59;;;;;;;16.10;9.20;;;29.10;74.30;;;;;;5034600;28;20033;-79
2023/08/24 07:32:26;;;;;;;12.60;8.50;;;29.20;74.10;;;;;;5035069;28;20018;-79
2023/08/24 07:34:51;;;;;;;14.77;8.73;;;29.20;74.30;;;;;;5034991;28;20037;-78
2023/08/24 07:37:17;;;;;;;12.38;8.40;;;29.30;74.50;;;;;;5034633;28;20121;-79
2023/08/24 07:39:43;;;;;;;9.77;7.75;;;29.30;74.30;;;;;;5034817;28;20021;-79
2023/08/24 07:42:09;;;;;;;16.13;8.40;;;29.40;74.40;;;;;;5034971;28;20013;-79
2023/08/24 07:44:35;;;;;;;19.08;8.70;;;29.40;74.30;;;;;;5034713;28;20021;-79
2023/08/24 07:47:01;;;;;;;9.00;8.10;;;29.50;74.40;;;;;;5034826;28;20025;-78
2023/08/24 07:49:27;;;;;;;16.45;8.20;;;29.50;74.20;;;;;;5034676;28;20030;-79
2023/08/24 07:51:53;;;;;;;11.65;7.72;;;29.60;74.30;;;;;;5034562;28;20062;-79
2023/08/24 07:54:20;;;;;;;14.25;9.15;;;29.60;74.30;;;;;;5034501;28;20100;-79
2023/08/24 07:56:46;;;;;;;12.57;8.77;;;29.70;74.20;;;;;;5034347;28;20028;-78
2023/08/24 07:59:11;;;;;;;13.68;8.50;;;29.70;74.20;;;;;;5033130;28;20034;-79
2023/08/24 08:01:37;;;;;;;11.18;9.27;;;29.70;73.90;;;;;;5032349;28;20142;-79
2023/08/24 08:04:03;;;;;;;14.68;9.07;;;29.80;73.90;;;;;;5034207;28;20026;-79
2023/08/24 08:06:29;;;;;;;11.63;9.57;;;29.90;74.00;;;;;;5034313;28;20022;-79
2023/08/24 08:08:55;;;;;;;14.68;8.60;;;29.90;74.10;;;;;;5033145;28;20116;-79
2023/08/24 08:11:21;;;;;;;15.45;9.18;;;30.00;73.90;;;;;;5032938;28;20021;-79
2023/08/24 08:13:47;;;;;;;11.25;9.15;;;30.10;73.60;;;;;;5034012;28;20025;-78
2023/08/24 08:16:12;;;;;;;13.00;8.20;;;30.10;73.50;;;;;;5034197;28;20373;-79
2023/08/24 08:18:38;;;;;;;13.40;8.57;;;30.20;73.80;;;;;;5033741;28;20095;-79
2023/08/24 08:21:15;;;;;;;15.25;8.48;;;30.20;73.90;;;;;;5033937;28;20023;-79
2023/08/24 08:23:41;;;;;;;15.07;8.63;;;30.20;73.60;;;;;;5034197;28;20355;-79
2023/08/24 08:26:09;;;;;;;14.57;8.35;;;30.30;73.00;;;;;;5033643;28;20044;-79
2023/08/24 08:28:35;;;;;;;17.65;9.40;;;30.40;72.90;;;;;;5033775;28;20033;-79
2023/08/24 08:31:01;;;;;;;12.77;8.55;;;30.40;72.80;;;;;;5033581;28;20032;-79
2023/08/24 08:33:27;;;;;;;9.55;8.55;;;30.40;72.30;;;;;;5033526;28;20037;-78
2023/08/24 08:35:52;;;;;;;11.75;8.35;;;30.50;71.80;;;;;;5032251;28;20045;-79
2023/08/24 08:38:19;;;;;;;12.07;9.32;;;30.50;72.00;;;;;;5033388;28;20077;-78
2023/08/24 08:40:48;;;;;;;11.43;8.82;;;30.60;72.80;;;;;;5033522;28;20022;-79
2023/08/24 08:43:14;;;;;;;16.02;9.07;;;30.60;72.60;;;;;;5033658;28;20037;-79
2023/08/24 08:45:39;;;;;;;13.05;8.82;;;30.60;72.20;;;;;;5033472;28;20091;-79
2023/08/24 08:48:06;;;;;;;10.77;8.98;;;30.70;72.60;;;;;;5032196;28;20026;-77
2023/08/24 08:50:35;;;;;;;16.45;8.43;;;30.70;72.60;;;;;;5033701;28;20021;-79
2023/08/24 08:53:01;;;;;;;14.63;9.18;;;30.80;73.20;;;;;;5033551;28;20084;-79
2023/08/24 08:55:29;;;;;;;13.90;8.63;;;30.80;72.30;;;;;;5031803;28;20033;-80
2023/08/24 08:57:58;;;;;;;10.82;8.77;;;30.90;72.20;;;;;;5033344;28;20056;-79
2023/08/24 09:00:24;;;;;;;12.77;9.02;;;30.90;72.70;;;;;;5033680;28;20453;-79
2023/08/24 09:02:53;;;;;;;9.93;8.93;;;30.90;73.20;;;;;;5033449;28;20032;-76
2023/08/24 09:05:19;;;;;;;9.73;8.70;;;31.00;73.00;;;;;;5033273;28;20033;-79
2023/08/24 09:07:47;;;;;;;16.17;9.43;;;31.00;72.50;;;;;;5033133;28;20025;-79
2023/08/24 09:10:14;;;;;;;14.35;8.95;;;31.10;72.30;;;;;;5033415;28;20049;-80
2023/08/24 09:12:40;;;;;;;11.43;8.73;;;31.10;72.50;;;;;;5033265;28;20025;-79
2023/08/24 09:15:06;;;;;;;12.40;8.63;;;31.20;72.30;;;;;;5033097;28;20056;-80
2023/08/24 09:17:36;;;;;;;13.23;7.80;;;31.30;71.40;;;;;;5033062;28;20033;-79
2023/08/24 09:20:09;;;;;;;9.93;8.05;;;31.30;70.40;;;;;;5032994;28;20021;-79
2023/08/24 09:22:37;;;;;;;13.07;8.20;;;31.40;68.60;;;;;;5033047;28;20445;-79
2023/08/24 09:25:06;;;;;;;15.15;8.80;;;31.40;68.80;;;;;;5033064;28;20021;-80
2023/08/24 09:27:32;;;;;;;14.68;8.20;;;31.40;69.50;;;;;;5033049;28;20018;-78
2023/08/24 09:29:58;;;;;;;12.18;7.93;;;31.50;69.20;;;;;;5031525;28;20029;-80
2023/08/24 09:32:34;;;;;;;8.88;7.38;;;31.60;68.40;;;;;;5032952;28;20032;-78
2023/08/24 09:35:21;;;;;;;11.23;7.43;;;31.60;67.90;;;;;;5033019;28;20497;-80
2023/08/24 09:37:49;;;;;;;9.02;7.15;;;31.70;67.60;;;;;;5033163;28;20033;-80
2023/08/24 09:40:15;;;;;;;16.30;6.78;;;31.70;66.70;;;;;;5031619;28;20504;-78
2023/08/24 09:42:43;;;;;;;11.60;7.53;;;31.80;66.50;;;;;;5033021;28;20101;-79
2023/08/24 09:45:12;;;;;;;11.85;7.32;;;31.80;65.40;;;;;;5032790;28;20029;-80
2023/08/24 09:47:38;;;;;;;10.55;6.88;;;31.90;65.60;;;;;;5032917;28;20084;-79
2023/08/24 09:50:05;;;;;;;9.65;7.00;;;32.00;66.00;;;;;;5032694;28;20535;-79
2023/08/24 09:52:34;;;;;;;13.18;7.47;;;32.00;65.40;;;;;;5036000;28;20385;-79
2023/08/24 09:55:05;;;;;;;10.40;7.30;;;32.00;65.60;;;;;;5036633;28;20363;-80
2023/08/24 09:57:38;;;;;;;15.82;7.00;;;32.10;65.00;;;;;;5036808;28;20034;-79
2023/08/24 10:00:14;;;;;;;13.10;7.13;;;32.20;64.70;;;;;;5036682;28;20030;-79
2023/08/24 10:02:52;;;;;;;9.15;6.72;;;32.20;64.10;;;;;;5036804;28;20036;-79
2023/08/24 10:05:20;;;;;;;12.32;7.00;;;32.30;63.80;;;;;;5035259;28;20032;-80
2023/08/24 10:07:54;;;;;;;11.65;6.95;;;32.40;62.70;;;;;;5036696;28;20091;-80
2023/08/24 10:10:21;;;;;;;8.68;6.57;;;32.40;63.10;;;;;;5036137;28;20473;-79
2023/08/24 10:12:56;;;;;;;9.88;7.50;;;32.50;62.90;;;;;;5036471;28;20022;-79
2023/08/24 10:15:23;;;;;;;10.85;7.78;;;32.50;62.90;;;;;;5036478;28;20040;-79
2023/08/24 10:17:50;;;;;;;11.70;7.32;;;32.60;62.80;;;;;;5035131;28;20030;-80
2023/08/24 10:20:19;;;;;;;9.07;7.43;;;32.60;62.30;;;;;;5036464;28;20049;-79
2023/08/24 10:22:46;;;;;;;13.27;7.35;;;32.60;62.30;;;;;;5036202;28;20105;-79
2023/08/24 10:25:13;;;;;;;14.32;7.13;;;32.70;62.50;;;;;;5036091;28;20029;-79
2023/08/24 10:27:43;;;;;;;15.68;7.20;;;32.70;62.20;;;;;;5036145;28;20048;-79
2023/08/24 10:30:13;;;;;;;14.38;7.43;;;32.70;62.50;;;;;;5034921;28;20030;-79
2023/08/24 10:32:41;;;;;;;13.53;7.47;;;32.80;62.10;;;;;;5036088;28;20025;-80
2023/08/24 10:35:08;;;;;;;15.27;6.65;;;32.80;61.80;;;;;;5036209;28;20014;-80
2023/08/24 10:37:34;;;;;;;11.90;6.65;;;32.80;61.20;;;;;;5035975;28;20048;-80
2023/08/24 10:40:00;;;;;;;10.65;7.05;;;32.90;61.30;;;;;;5034835;28;20131;-80
2023/08/24 10:42:26;;;;;;;10.13;6.60;;;32.90;61.30;;;;;;5034376;28;20084;-80
2023/08/24 10:44:53;;;;;;;9.13;6.65;;;33.00;61.50;;;;;;5033909;28;20033;-79
2023/08/24 10:47:27;;;;;;;12.57;6.88;;;33.00;61.50;;;;;;5035735;28;20351;-79
2023/08/24 10:49:55;;;;;;;9.63;6.70;;;33.00;63.20;;;;;;5035842;28;20040;-79
2023/08/24 10:52:36;;;;;;;10.57;6.75;;;33.00;62.30;;;;;;5035853;28;20056;-79
2023/08/24 10:55:06;;;;;;;14.27;7.22;;;33.10;61.60;;;;;;5035792;28;20036;-79
2023/08/24 10:57:41;;;;;;;9.40;6.40;;;33.10;61.10;;;;;;5034381;28;20026;-80
2023/08/24 11:00:11;;;;;;;10.45;6.70;;;33.20;61.10;;;;;;5035805;28;20428;-80
2023/08/24 11:02:51;;;;;;;12.40;6.53;;;33.20;60.30;;;;;;5034382;28;20079;-80
2023/08/24 11:05:32;;;;;;;11.18;6.63;;;33.20;59.80;;;;;;5035516;28;20537;-78
2023/08/24 11:08:00;;;;;;;11.30;6.90;;;33.30;59.90;;;;;;5035642;28;20040;-80
2023/08/24 11:10:41;;;;;;;11.40;6.78;;;33.30;59.70;;;;;;5034462;28;20056;-80
2023/08/24 11:13:19;;;;;;;10.05;6.63;;;33.30;59.40;;;;;;5035798;28;20347;-79
2023/08/24 11:15:56;;;;;;;8.30;6.63;;;33.30;60.00;;;;;;5035292;28;20473;-80
2023/08/24 11:18:27;;;;;;;10.55;6.78;;;33.40;59.20;;;;;;5035394;28;20163;-79
2023/08/24 11:21:06;;;;;;;12.75;5.97;;;33.30;57.60;;;;;;5035260;28;20025;-79
2023/08/24 11:23:33;;;;;;;8.75;6.43;;;33.30;57.00;;;;;;5035441;28;20032;-79
2023/08/24 11:26:00;;;;;;;9.63;5.57;;;33.40;56.60;;;;;;5035050;28;20033;-79
2023/08/24 11:28:30;;;;;;;7.90;5.22;;;33.40;54.80;;;;;;5035210;28;20053;-79
2023/08/24 11:30:57;;;;;;;10.77;5.72;;;33.40;55.80;;;;;;5035163;28;20031;-79
2023/08/24 11:33:34;;;;;;;11.75;5.70;;;33.50;55.20;;;;;;5035080;28;20056;-80
2023/08/24 11:36:02;;;;;;;9.55;5.60;;;33.50;55.20;;;;;;5034679;28;20081;-78
2023/08/24 11:38:42;;;;;;;9.88;5.97;;;33.50;55.20;;;;;;5034917;28;20371;-80
2023/08/24 11:41:18;;;;;;;10.57;5.53;;;33.50;55.00;;;;;;5034768;28;20112;-79
2023/08/24 11:43:45;;;;;;;10.90;5.60;;;33.50;54.60;;;;;;5033481;28;20034;-80
2023/08/24 11:46:12;;;;;;;6.45;5.55;;;33.50;54.60;;;;;;5034696;28;20075;-80
2023/08/24 11:48:41;;;;;;;10.55;5.40;;;33.50;55.20;;;;;;5034630;28;20493;-80
2023/08/24 11:51:13;;;;;;;8.52;5.38;;;33.60;55.40;;;;;;5034871;28;20477;-79
2023/08/24 11:53:46;;;;;;;7.07;5.82;;;33.60;54.80;;;;;;5034589;28;20026;-79
2023/08/24 11:56:13;;;;;;;7.50;5.78;;;33.60;55.20;;;;;;5034672;28;20392;-79
2023/08/24 11:58:44;;;;;;;11.82;5.72;;;33.60;54.50;;;;;;5034526;28;20045;-79
2023/08/24 12:01:11;;;;;;;11.80;5.50;;;33.60;54.20;;;;;;5033196;28;20017;-78
2023/08/24 12:03:38;;;;;;;9.85;6.03;;;33.70;54.30;;;;;;5034446;28;20109;-79
2023/08/24 12:06:15;;;;;;;9.63;5.40;;;33.70;54.50;;;;;;5033000;28;20098;-78
2023/08/24 12:08:41;;;;;;;7.85;5.75;;;33.70;54.10;;;;;;5034025;28;20378;-80
2023/08/24 12:11:18;;;;;;;11.20;5.63;;;33.70;54.20;;;;;;5034137;28;20466;-80
2023/08/24 12:13:49;;;;;;;10.25;5.50;;;33.70;53.90;;;;;;5034280;28;20030;-80
2023/08/24 12:16:19;;;;;;;11.70;5.75;;;33.70;53.20;;;;;;5034410;28;20025;-79
2023/08/24 12:18:53;;;;;;;8.80;5.07;;;33.70;52.40;;;;;;5034025;28;20034;-79
2023/08/24 12:21:23;;;;;;;9.38;5.95;;;33.70;52.30;;;;;;5033001;28;20022;-79
2023/08/24 12:23:55;;;;;;;9.68;5.70;;;33.70;52.50;;;;;;5032705;28;20433;-80
2023/08/24 12:26:21;;;;;;;9.18;5.75;;;33.70;52.80;;;;;;5032660;28;20025;-80
2023/08/24 12:28:53;;;;;;;8.80;5.70;;;33.70;53.10;;;;;;5034120;28;20024;-80
2023/08/24 12:31:20;;;;;;;9.18;5.75;;;33.70;53.00;;;;;;5033968;28;20485;-79
2023/08/24 12:33:56;;;;;;;8.77;5.65;;;33.70;52.90;;;;;;5033780;28;20028;-80
2023/08/24 12:36:22;;;;;;;8.38;5.60;;;33.70;53.00;;;;;;5033719;28;20053;-80
2023/08/24 12:38:48;;;;;;;13.20;6.13;;;33.70;53.10;;;;;;5033640;28;20128;-79
2023/08/24 12:41:14;;;;;;;11.48;5.53;;;33.70;52.70;;;;;;5033819;28;20029;-79
2023/08/24 12:43:39;;;;;;;11.68;5.85;;;33.70;52.80;;;;;;5032351;28;20144;-79